Time;durP1;ratioP1;P1;durP2;ratioP2;P2;SDS_P1;SDS_P2;PMS_P1;PMS_P2;Temp;Humidity;BMP_temperature;BMP_pressure;BME280_temperature;BME280_humidity;BME280_pressure;Samples;Min_cycle;Max_cycle;Signal;HPM_P1;HPM_P2
2023/07/06 03:00:29;;;;;;;35.60;33.40;;;12.20;99.90;;;;;;5751803;23;20218;-76
2023/07/06 03:02:56;;;;;;;32.30;30.63;;;12.20;99.90;;;;;;4858241;29;20629;-76
2023/07/06 03:05:23;;;;;;;35.63;33.57;;;12.20;99.90;;;;;;4859349;29;20621;-76
2023/07/06 03:07:54;;;;;;;36.60;34.70;;;12.10;99.90;;;;;;4860999;29;20562;-76
2023/07/06 03:10:21;;;;;;;51.47;48.70;;;12.10;99.90;;;;;;4858195;29;20652;-76
2023/07/06 03:12:48;;;;;;;52.97;50.13;;;12.00;99.90;;;;;;4877417;29;20195;-75
2023/07/06 03:15:15;;;;;;;60.90;57.73;;;11.90;99.90;;;;;;4899202;24;20235;-82
2023/07/06 03:17:48;;;;;;;39.00;36.80;;;11.80;99.90;;;;;;4901264;29;20569;-81
2023/07/06 03:20:18;;;;;;;40.37;38.17;;;11.80;99.90;;;;;;4902358;29;20191;-82
2023/07/06 03:22:48;;;;;;;38.47;36.50;;;11.80;99.90;;;;;;4891800;29;20193;-81
2023/07/06 03:25:15;;;;;;;39.37;37.23;;;11.80;99.90;;;;;;4897362;29;20219;-83
2023/07/06 03:27:43;;;;;;;41.17;38.97;;;11.80;99.90;;;;;;4903330;29;20215;-83
2023/07/06 03:30:10;;;;;;;39.33;37.20;;;11.80;99.90;;;;;;4889016;29;20247;-83
2023/07/06 03:32:37;;;;;;;44.97;42.57;;;11.70;99.90;;;;;;4911073;29;20252;-82
2023/07/06 03:35:09;;;;;;;46.77;44.07;;;11.70;99.90;;;;;;4911066;29;20199;-82
2023/07/06 03:37:37;;;;;;;45.27;42.77;;;11.60;99.90;;;;;;4894708;29;20263;-83
2023/07/06 03:40:05;;;;;;;43.67;41.40;;;11.60;99.90;;;;;;4907641;29;20196;-83
2023/07/06 03:42:32;;;;;;;61.27;57.80;;;11.60;99.90;;;;;;4909690;29;20188;-83
2023/07/06 03:44:58;;;;;;;62.20;58.53;;;11.60;99.90;;;;;;4896992;29;20199;-83
2023/07/06 03:47:26;;;;;;;56.73;53.70;;;11.60;99.90;;;;;;4897717;29;20215;-83
2023/07/06 03:49:53;;;;;;;56.00;53.07;;;11.70;99.90;;;;;;4906931;29;20701;-83
2023/07/06 03:52:19;;;;;;;36.83;34.83;;;11.80;99.90;;;;;;4902602;29;20239;-83
2023/07/06 03:54:45;;;;;;;52.77;49.90;;;11.80;99.90;;;;;;4910411;29;20187;-82
2023/07/06 03:57:11;;;;;;;37.97;35.63;;;11.80;99.90;;;;;;4913966;29;20538;-81
2023/07/06 03:59:38;;;;;;;27.70;26.17;;;11.80;99.90;;;;;;4908724;29;20280;-82
2023/07/06 04:02:09;;;;;;;22.70;21.20;;;11.80;99.90;;;;;;4914328;29;20219;-83
2023/07/06 04:04:36;;;;;;;22.63;21.43;;;11.80;99.90;;;;;;4906442;29;20270;-81
2023/07/06 04:07:02;;;;;;;32.53;30.70;;;11.80;99.90;;;;;;4892786;29;20257;-84
2023/07/06 04:09:29;;;;;;;26.00;23.97;;;11.80;99.90;;;;;;4892252;29;20248;-84
2023/07/06 04:11:55;;;;;;;17.43;15.93;;;11.90;99.90;;;;;;4908242;29;20208;-81
2023/07/06 04:14:25;;;;;;;28.33;26.03;;;12.00;99.90;;;;;;4895492;29;20195;-83
2023/07/06 04:16:56;;;;;;;27.07;25.43;;;12.00;99.90;;;;;;4896455;29;20595;-83
2023/07/06 04:19:23;;;;;;;26.57;24.83;;;12.00;99.90;;;;;;4899339;29;20345;-81
2023/07/06 04:21:49;;;;;;;18.70;17.50;;;12.00;99.90;;;;;;4887482;29;20243;-81
2023/07/06 04:24:16;;;;;;;30.90;25.47;;;12.00;99.90;;;;;;4890424;29;20200;-67
2023/07/06 04:26:46;;;;;;;19.37;18.10;;;12.10;99.90;;;;;;4897361;29;20703;-65
2023/07/06 04:29:12;;;;;;;20.97;19.80;;;12.20;99.90;;;;;;4890658;29;20212;-65
2023/07/06 04:31:39;;;;;;;28.63;26.50;;;12.30;99.90;;;;;;4897080;29;20298;-65
2023/07/06 04:34:05;;;;;;;47.40;44.73;;;12.40;99.90;;;;;;4882795;29;20181;-65
2023/07/06 04:36:31;;;;;;;64.10;60.70;;;12.40;99.90;;;;;;4890431;29;20227;-66
2023/07/06 04:39:03;;;;;;;16.23;15.27;;;12.60;99.90;;;;;;4885809;29;20671;-65
2023/07/06 04:41:29;;;;;;;12.10;11.30;;;12.60;99.90;;;;;;4881496;29;20199;-65
2023/07/06 04:43:55;;;;;;;10.80;10.10;;;12.70;99.90;;;;;;4886690;29;20196;-64
2023/07/06 04:46:21;;;;;;;12.07;11.20;;;12.80;99.90;;;;;;4897189;29;20226;-65
2023/07/06 04:48:48;;;;;;;15.80;14.70;;;12.90;99.90;;;;;;4897040;29;20656;-65
2023/07/06 04:51:14;;;;;;;19.50;18.40;;;13.00;99.90;;;;;;4896942;29;20215;-65
2023/07/06 04:53:42;;;;;;;17.57;16.17;;;13.20;99.90;;;;;;4890922;29;20588;-65
2023/07/06 04:56:08;;;;;;;19.97;18.67;;;13.40;99.90;;;;;;4890850;29;20274;-65
2023/07/06 04:58:34;;;;;;;21.53;20.23;;;13.50;99.90;;;;;;4895528;29;20187;-65
2023/07/06 05:01:05;;;;;;;22.60;21.40;;;13.60;99.90;;;;;;4897492;29;20196;-65
2023/07/06 05:03:31;;;;;;;20.57;18.97;;;13.60;99.90;;;;;;4885226;29;20250;-64
2023/07/06 05:06:02;;;;;;;37.37;35.43;;;13.80;99.90;;;;;;4892971;29;20215;-65
2023/07/06 05:08:28;;;;;;;16.87;15.97;;;14.00;99.90;;;;;;4897037;29;20207;-65
2023/07/06 05:10:54;;;;;;;11.27;10.17;;;14.40;99.90;;;;;;4897057;29;20207;-65
2023/07/06 05:13:21;;;;;;;8.70;8.20;;;15.00;99.90;;;;;;4890933;29;20195;-66
2023/07/06 05:15:48;;;;;;;7.23;6.73;;;15.60;99.90;;;;;;4896431;29;20219;-65
2023/07/06 05:18:15;;;;;;;24.10;22.77;;;16.30;99.90;;;;;;4896574;29;20222;-66
2023/07/06 05:20:41;;;;;;;19.70;18.47;;;17.10;99.90;;;;;;4896511;29;20616;-66
2023/07/06 05:23:08;;;;;;;20.43;19.30;;;17.90;99.90;;;;;;4891266;29;20665;-66
2023/07/06 05:25:36;;;;;;;22.75;21.20;;;18.50;99.90;;;;;;4882726;29;20212;-66
2023/07/06 05:28:02;;;;;;;16.92;15.80;;;18.90;99.90;;;;;;4896452;29;20285;-66
2023/07/06 05:30:28;;;;;;;6.53;6.13;;;19.40;99.90;;;;;;4896184;29;20196;-66
2023/07/06 05:32:55;;;;;;;8.68;7.95;;;19.70;99.90;;;;;;4892972;29;20720;-65
2023/07/06 05:35:23;;;;;;;13.95;12.85;;;20.10;99.90;;;;;;4891111;29;20218;-65
2023/07/06 05:37:49;;;;;;;14.02;13.20;;;20.40;99.90;;;;;;4888977;29;20636;-65
2023/07/06 05:40:15;;;;;;;12.73;11.70;;;20.20;99.90;;;;;;4895046;29;20230;-65
2023/07/06 05:42:41;;;;;;;10.27;9.68;;;20.10;99.90;;;;;;4888593;29;20567;-72
2023/07/06 05:45:08;;;;;;;7.82;7.28;;;20.30;99.90;;;;;;4891511;29;20243;-72
2023/07/06 05:47:34;;;;;;;8.90;8.30;;;20.10;99.90;;;;;;4888077;29;20191;-72
2023/07/06 05:50:00;;;;;;;9.68;9.02;;;20.10;99.90;;;;;;4890763;29;20536;-73
2023/07/06 05:52:27;;;;;;;10.18;9.57;;;20.80;99.90;;;;;;4895047;29;20226;-73
2023/07/06 05:54:53;;;;;;;8.05;7.55;;;21.10;99.90;;;;;;4883848;29;20188;-71
2023/07/06 05:57:19;;;;;;;14.18;13.38;;;21.30;99.90;;;;;;4893748;29;20191;-71
2023/07/06 05:59:47;;;;;;;7.05;6.65;;;20.90;99.90;;;;;;4890355;29;20547;-71
2023/07/06 06:02:19;;;;;;;7.53;6.85;;;20.30;99.90;;;;;;4895994;29;20727;-71
2023/07/06 06:04:47;;;;;;;7.95;7.45;;;20.40;99.90;;;;;;4895913;29;20569;-73
2023/07/06 06:07:13;;;;;;;5.80;5.40;;;20.90;99.90;;;;;;4894657;29;20196;-73
2023/07/06 06:09:39;;;;;;;5.70;5.13;;;21.30;99.90;;;;;;4887195;29;20278;-71
2023/07/06 06:12:05;;;;;;;4.40;4.10;;;21.60;99.90;;;;;;4892384;29;20370;-71
2023/07/06 06:14:32;;;;;;;5.20;4.80;;;21.40;99.90;;;;;;4895010;29;20192;-72
2023/07/06 06:16:58;;;;;;;5.50;5.00;;;21.20;99.90;;;;;;4894479;29;20310;-72
2023/07/06 06:19:26;;;;;;;6.75;6.03;;;21.80;99.90;;;;;;4889106;29;20274;-72
2023/07/06 06:21:53;;;;;;;9.40;8.73;;;22.60;99.90;;;;;;4895841;29;20192;-72
2023/07/06 06:24:19;;;;;;;17.65;16.38;;;23.10;99.90;;;;;;4894716;29;20195;-72
2023/07/06 06:26:45;;;;;;;9.43;8.18;;;23.60;99.90;;;;;;4894538;29;20208;-71
2023/07/06 06:29:11;;;;;;;11.10;10.40;;;24.20;98.30;;;;;;4882403;29;20195;-72
2023/07/06 06:31:42;;;;;;;9.45;5.63;;;24.20;96.90;;;;;;4889782;29;20218;-72
2023/07/06 06:34:10;;;;;;;6.88;6.13;;;24.30;96.50;;;;;;4895970;29;20207;-71
2023/07/06 06:36:36;;;;;;;8.13;7.35;;;24.20;96.20;;;;;;4894561;29;20207;-72
2023/07/06 06:39:01;;;;;;;5.65;5.30;;;24.20;95.90;;;;;;4888495;29;20193;-74
2023/07/06 06:41:28;;;;;;;4.40;4.15;;;24.30;95.00;;;;;;4889000;29;20387;-73
2023/07/06 06:43:56;;;;;;;5.10;4.70;;;25.00;94.00;;;;;;4895990;29;20202;-73
2023/07/06 06:46:23;;;;;;;7.00;6.60;;;25.50;92.30;;;;;;4895712;29;20234;-73
2023/07/06 06:48:49;;;;;;;7.80;6.10;;;25.60;91.30;;;;;;4891719;29;20198;-68
2023/07/06 06:51:15;;;;;;;7.43;6.82;;;24.90;92.00;;;;;;4899625;29;20239;-72
2023/07/06 06:53:41;;;;;;;6.07;5.78;;;24.80;91.60;;;;;;4898372;29;20687;-72
2023/07/06 06:56:09;;;;;;;7.97;7.30;;;24.90;91.70;;;;;;4899562;29;20242;-72
2023/07/06 06:58:36;;;;;;;10.95;10.18;;;25.30;91.10;;;;;;4893138;29;20756;-72
2023/07/06 07:01:04;;;;;;;13.60;12.68;;;25.90;90.10;;;;;;4893335;29;20191;-72
2023/07/06 07:03:30;;;;;;;8.00;7.35;;;26.20;89.40;;;;;;4898476;29;20278;-73
2023/07/06 07:06:13;;;;;;;7.90;7.40;;;26.50;86.70;;;;;;4891911;29;20355;-73
2023/07/06 07:08:43;;;;;;;5.32;4.90;;;26.90;86.00;;;;;;4892433;29;20195;-72
2023/07/06 07:11:10;;;;;;;12.68;4.60;;;27.10;83.00;;;;;;4898339;29;20244;-72
2023/07/06 07:13:37;;;;;;;5.45;5.10;;;26.70;83.00;;;;;;4899512;29;20203;-73
2023/07/06 07:16:05;;;;;;;6.80;6.25;;;26.50;83.70;;;;;;4899215;29;20231;-73
2023/07/06 07:18:34;;;;;;;6.63;5.35;;;26.70;83.10;;;;;;4893389;29;20552;-72
2023/07/06 07:21:03;;;;;;;5.75;5.25;;;26.80;81.40;;;;;;4899098;29;20691;-73
2023/07/06 07:23:36;;;;;;;8.52;7.93;;;27.00;81.80;;;;;;4899202;29;20196;-73
2023/07/06 07:26:03;;;;;;;6.53;6.22;;;26.60;80.80;;;;;;4897872;29;20598;-72
2023/07/06 07:28:29;;;;;;;7.13;6.72;;;26.30;81.00;;;;;;4893363;29;20271;-73
2023/07/06 07:30:56;;;;;;;6.07;5.78;;;26.60;80.60;;;;;;4892165;29;20687;-72
2023/07/06 07:33:28;;;;;;;5.13;4.47;;;27.10;78.60;;;;;;4897427;29;20633;-73
2023/07/06 07:36:00;;;;;;;5.00;4.55;;;27.10;78.00;;;;;;4898787;29;20214;-72
2023/07/06 07:38:26;;;;;;;5.88;5.47;;;27.60;78.20;;;;;;4893314;29;20188;-72
2023/07/06 07:41:00;;;;;;;5.38;4.20;;;28.00;76.80;;;;;;4894431;29;20593;-72
2023/07/06 07:43:28;;;;;;;3.67;3.38;;;28.30;74.10;;;;;;4897100;29;20562;-72
2023/07/06 07:45:56;;;;;;;5.95;4.22;;;28.70;73.60;;;;;;4898571;29;20267;-73
2023/07/06 07:48:23;;;;;;;6.03;5.63;;;28.70;72.00;;;;;;4893460;29;20189;-73
2023/07/06 07:51:01;;;;;;;4.50;4.13;;;28.50;70.00;;;;;;4897522;29;20649;-72
2023/07/06 07:53:29;;;;;;;4.13;3.83;;;28.40;71.00;;;;;;4898726;29;20195;-72
2023/07/06 07:55:56;;;;;;;5.07;3.63;;;27.90;71.10;;;;;;4898380;29;20203;-74
2023/07/06 07:58:22;;;;;;;4.45;3.67;;;28.10;71.60;;;;;;4893433;29;20568;-73
2023/07/06 08:00:52;;;;;;;3.63;3.33;;;28.40;71.40;;;;;;4899003;29;20192;-73
2023/07/06 08:03:18;;;;;;;5.10;3.20;;;28.10;70.20;;;;;;4896555;29;20223;-72
2023/07/06 08:05:44;;;;;;;4.47;3.53;;;27.90;70.10;;;;;;4897141;29;20216;-72
2023/07/06 08:08:11;;;;;;;5.10;4.57;;;26.80;72.70;;;;;;4893474;29;20263;-72
2023/07/06 08:10:39;;;;;;;4.13;3.58;;;27.10;72.70;;;;;;4898162;29;20191;-72
2023/07/06 08:13:09;;;;;;;9.07;3.60;;;27.60;70.40;;;;;;4898243;29;20277;-73
2023/07/06 08:15:39;;;;;;;5.18;4.88;;;28.20;68.80;;;;;;4896812;29;20230;-72
2023/07/06 08:18:06;;;;;;;6.53;5.93;;;28.60;65.40;;;;;;4893753;29;20237;-72
2023/07/06 08:20:35;;;;;;;9.95;6.63;;;28.70;64.70;;;;;;4897981;29;20183;-73
2023/07/06 08:23:04;;;;;;;13.35;12.60;;;28.80;64.20;;;;;;4898085;29;20192;-73
2023/07/06 08:25:37;;;;;;;14.35;13.32;;;28.90;62.10;;;;;;4896537;29;20306;-72
2023/07/06 08:28:05;;;;;;;15.95;15.02;;;29.10;60.30;;;;;;4894022;29;20216;-73
2023/07/06 08:30:32;;;;;;;14.85;14.10;;;28.90;60.20;;;;;;4897691;29;20191;-73
2023/07/06 08:33:02;;;;;;;9.05;8.38;;;29.10;60.30;;;;;;4896852;29;20668;-73
2023/07/06 08:35:29;;;;;;;12.88;12.27;;;29.20;59.00;;;;;;4897819;29;20333;-73
2023/07/06 08:37:56;;;;;;;18.08;16.98;;;29.00;59.50;;;;;;4895030;29;20231;-73
2023/07/06 08:40:26;;;;;;;21.38;20.33;;;28.80;60.50;;;;;;4896330;29;20215;-73
2023/07/06 08:42:55;;;;;;;20.98;19.80;;;28.50;60.40;;;;;;4897834;29;20196;-73
2023/07/06 08:45:27;;;;;;;14.88;14.02;;;28.10;60.20;;;;;;4897540;29;20211;-73
2023/07/06 08:47:54;;;;;;;12.00;11.23;;;27.80;61.50;;;;;;4895571;29;20184;-73
2023/07/06 08:50:29;;;;;;;8.50;7.93;;;27.80;61.60;;;;;;4889277;29;20205;-72
2023/07/06 08:52:56;;;;;;;5.18;4.53;;;27.60;62.20;;;;;;4896251;29;20195;-73
2023/07/06 08:55:24;;;;;;;5.05;4.75;;;27.40;62.00;;;;;;4897376;29;20334;-73
2023/07/06 08:57:51;;;;;;;4.60;4.35;;;27.50;62.10;;;;;;4896201;29;20279;-72
2023/07/06 09:00:21;;;;;;;6.40;6.00;;;28.10;61.60;;;;;;4895401;29;20225;-73
2023/07/06 09:02:59;;;;;;;10.32;9.63;;;28.40;59.30;;;;;;4892425;29;20184;-73
2023/07/06 09:05:31;;;;;;;12.00;11.30;;;29.00;58.10;;;;;;4896052;29;20211;-73
2023/07/06 09:07:58;;;;;;;11.23;10.57;;;29.10;58.50;;;;;;4895196;29;20282;-73
2023/07/06 09:10:28;;;;;;;20.20;19.27;;;29.70;59.40;;;;;;4895848;29;20203;-73
2023/07/06 09:12:56;;;;;;;19.52;18.52;;;30.00;58.60;;;;;;4891822;29;20270;-72
2023/07/06 09:15:28;;;;;;;15.95;15.07;;;30.00;57.60;;;;;;4895671;29;20256;-72
2023/07/06 09:17:59;;;;;;;9.43;8.90;;;30.20;57.90;;;;;;4911284;24;20239;-70
2023/07/06 09:20:26;;;;;;;8.90;7.90;;;30.50;57.00;;;;;;4896129;29;20202;-71
2023/07/06 09:22:52;;;;;;;6.57;4.38;;;31.00;55.80;;;;;;4897245;29;20243;-71
2023/07/06 09:25:21;;;;;;;5.68;5.10;;;30.80;55.80;;;;;;4896981;29;20648;-71
2023/07/06 09:27:48;;;;;;;5.57;5.07;;;30.90;55.00;;;;;;4896691;29;20588;-71
2023/07/06 09:30:25;;;;;;;6.28;5.78;;;31.10;53.50;;;;;;4894193;29;20192;-70
2023/07/06 09:32:54;;;;;;;6.55;6.22;;;30.90;52.70;;;;;;4895937;29;20199;-71
2023/07/06 09:35:20;;;;;;;8.25;7.45;;;30.70;52.70;;;;;;4896767;29;20191;-71
2023/07/06 09:37:47;;;;;;;6.07;5.47;;;30.30;52.80;;;;;;4895203;29;20219;-72
2023/07/06 09:40:14;;;;;;;5.15;4.85;;;30.20;53.30;;;;;;4890957;29;20187;-72
2023/07/06 09:42:41;;;;;;;6.00;5.70;;;30.30;54.10;;;;;;4896702;29;20340;-71
2023/07/06 09:45:26;;;;;;;6.75;6.15;;;31.10;52.60;;;;;;4895309;29;20196;-72
2023/07/06 09:48:07;;;;;;;6.18;5.68;;;31.30;54.00;;;;;;4894922;29;20226;-69
2023/07/06 09:50:43;;;;;;;6.35;5.43;;;31.20;53.10;;;;;;4896207;29;20203;-69
2023/07/06 09:53:23;;;;;;;4.82;4.22;;;31.40;54.30;;;;;;4896412;29;20187;-69
2023/07/06 09:55:49;;;;;;;6.35;4.10;;;32.00;53.60;;;;;;4896308;29;20187;-70
2023/07/06 09:58:20;;;;;;;8.38;4.10;;;32.40;51.90;;;;;;4893758;29;20203;-69
2023/07/06 10:01:03;;;;;;;4.05;3.67;;;32.30;51.50;;;;;;4896399;29;20200;-69
2023/07/06 10:03:53;;;;;;;3.70;3.22;;;31.40;50.80;;;;;;4895070;29;20200;-69
2023/07/06 10:06:30;;;;;;;6.75;6.28;;;30.20;52.30;;;;;;4895930;29;20235;-69
2023/07/06 10:09:08;;;;;;;7.32;6.95;;;28.70;54.00;;;;;;4892877;29;20195;-71
2023/07/06 10:11:55;;;;;;;5.32;5.03;;;28.10;55.30;;;;;;4882920;29;20242;-69
2023/07/06 10:14:28;;;;;;;7.82;7.30;;;27.60;56.10;;;;;;4902078;29;20196;-70
2023/07/06 10:17:15;;;;;;;14.60;13.88;;;27.40;56.60;;;;;;4896224;29;20223;-71
2023/07/06 10:20:09;;;;;;;16.05;15.15;;;27.60;56.30;;;;;;4894652;29;20188;-70
2023/07/06 10:23:04;;;;;;;21.63;20.35;;;27.30;55.60;;;;;;4894816;29;20223;-70
2023/07/06 10:26:00;;;;;;;15.05;14.02;;;26.90;56.10;;;;;;4877316;29;20183;-70
2023/07/06 10:28:33;;;;;;;12.05;11.43;;;27.70;55.80;;;;;;4880499;29;20588;-70
2023/07/06 10:31:03;;;;;;;4.30;4.00;;;28.60;54.00;;;;;;4895541;29;20223;-71
2023/07/06 10:33:41;;;;;;;4.30;4.03;;;29.90;52.20;;;;;;4895466;29;20209;-70
2023/07/06 10:36:12;;;;;;;5.85;5.35;;;30.90;49.80;;;;;;4894240;29;20278;-70
2023/07/06 10:38:38;;;;;;;6.63;6.03;;;32.00;50.00;;;;;;4892872;29;20195;-73
2023/07/06 10:41:10;;;;;;;6.28;5.88;;;32.50;49.20;;;;;;4895413;29;20191;-76
2023/07/06 10:43:40;;;;;;;10.05;9.30;;;32.50;49.60;;;;;;4890210;29;20195;-74
2023/07/06 10:46:30;;;;;;;11.48;10.68;;;31.90;48.00;;;;;;4895365;29;20267;-75
2023/07/06 10:48:57;;;;;;;11.13;10.32;;;31.70;48.40;;;;;;4887084;29;20206;-75
2023/07/06 10:51:26;;;;;;;8.43;7.95;;;31.00;49.60;;;;;;4894105;29;20215;-75
2023/07/06 10:54:30;;;;;;;16.25;15.18;;;31.50;49.80;;;;;;4895051;29;20206;-75
2023/07/06 10:57:12;;;;;;;9.52;8.73;;;31.10;48.10;;;;;;4893944;29;20219;-76
2023/07/06 10:59:48;;;;;;;12.73;11.93;;;31.10;49.50;;;;;;4866354;29;20219;-76
2023/07/06 11:02:40;;;;;;;16.70;15.65;;;31.70;49.00;;;;;;4891148;29;20357;-76
2023/07/06 11:05:25;;;;;;;16.17;15.15;;;31.70;47.60;;;;;;4895364;29;20227;-75
2023/07/06 11:07:53;;;;;;;12.65;11.82;;;31.70;48.20;;;;;;4909706;29;20215;-75
2023/07/06 11:10:19;;;;;;;9.88;9.20;;;32.10;46.90;;;;;;4886842;29;20559;-75
2023/07/06 11:12:56;;;;;;;7.63;7.10;;;32.30;46.70;;;;;;4893957;29;20746;-75
2023/07/06 11:15:40;;;;;;;22.60;21.50;;;32.50;45.10;;;;;;4895470;29;20279;-75
2023/07/06 11:18:18;;;;;;;4.30;3.90;;;30.90;46.90;;;;;;4893726;29;20275;-75
2023/07/06 11:21:02;;;;;;;8.07;7.30;;;30.70;49.00;;;;;;4884798;29;20279;-75
2023/07/06 11:23:38;;;;;;;10.65;10.05;;;31.60;47.30;;;;;;4895117;29;20199;-76
2023/07/06 11:26:08;;;;;;;12.60;11.90;;;32.10;46.50;;;;;;4896806;29;20206;-79
2023/07/06 11:28:35;;;;;;;16.30;15.45;;;31.80;46.70;;;;;;4884054;29;20242;-77
2023/07/06 11:31:19;;;;;;;19.63;18.60;;;31.50;47.40;;;;;;4883871;29;20223;-80
2023/07/06 11:34:00;;;;;;;17.52;16.52;;;31.00;47.50;;;;;;4887008;29;20192;-77
2023/07/06 11:36:39;;;;;;;17.30;16.45;;;31.20;47.10;;;;;;4901467;29;20223;-77
2023/07/06 11:39:13;;;;;;;11.90;11.13;;;31.90;47.80;;;;;;4885990;29;20192;-75
2023/07/06 11:41:56;;;;;;;7.15;6.75;;;32.90;45.70;;;;;;4884730;29;20747;-74
2023/07/06 11:44:44;;;;;;;4.25;3.95;;;33.30;45.50;;;;;;4899057;29;20666;-74
2023/07/06 11:47:35;;;;;;;3.47;3.17;;;32.30;44.80;;;;;;4906808;29;20304;-73
2023/07/06 11:50:08;;;;;;;5.05;3.50;;;32.00;45.40;;;;;;4892003;29;20592;-75
2023/07/06 11:52:39;;;;;;;6.63;5.10;;;32.00;45.70;;;;;;4898928;29;20223;-74
2023/07/06 11:55:28;;;;;;;4.97;4.50;;;32.00;44.30;;;;;;4897421;29;20199;-75
2023/07/06 11:58:28;;;;;;;6.28;3.35;;;32.30;45.00;;;;;;4898054;29;20212;-75
2023/07/06 12:00:56;;;;;;;4.85;4.55;;;32.90;43.40;;;;;;4887988;29;20800;-75
2023/07/06 12:03:29;;;;;;;19.60;18.45;;;33.70;43.50;;;;;;4898413;29;20280;-75
2023/07/06 12:05:59;;;;;;;34.95;33.08;;;34.60;41.40;;;;;;4896850;29;20199;-75
2023/07/06 12:08:29;;;;;;;38.40;36.42;;;34.80;40.70;;;;;;4896591;29;20204;-75
2023/07/06 12:11:03;;;;;;;30.58;28.90;;;34.60;41.00;;;;;;4888515;29;20227;-75
2023/07/06 12:13:36;;;;;;;36.78;34.78;;;34.50;41.10;;;;;;4897552;29;20196;-75
2023/07/06 12:16:07;;;;;;;12.75;12.05;;;34.90;41.70;;;;;;4893861;29;20207;-74
2023/07/06 12:18:34;;;;;;;10.60;10.00;;;35.40;40.80;;;;;;4894626;29;20688;-75
2023/07/06 12:21:00;;;;;;;9.45;8.75;;;35.30;40.40;;;;;;4894700;29;20187;-75
2023/07/06 12:23:26;;;;;;;6.82;6.32;;;35.50;40.10;;;;;;4897719;29;20251;-75
2023/07/06 12:25:57;;;;;;;6.18;5.65;;;36.00;39.50;;;;;;4895650;29;20616;-75
2023/07/06 12:28:29;;;;;;;5.85;5.45;;;35.80;39.60;;;;;;4896331;29;20676;-75
2023/07/06 12:31:03;;;;;;;6.45;5.95;;;35.90;38.90;;;;;;4887006;29;20302;-75
2023/07/06 12:33:29;;;;;;;3.97;3.78;;;35.10;39.40;;;;;;4897634;29;20201;-75
2023/07/06 12:35:56;;;;;;;4.85;4.53;;;34.50;39.50;;;;;;4897791;29;20199;-75
2023/07/06 12:38:23;;;;;;;7.50;7.00;;;34.30;39.50;;;;;;4896808;29;20196;-75
2023/07/06 12:40:49;;;;;;;12.45;11.60;;;33.80;39.80;;;;;;4890638;29;20245;-74
2023/07/06 12:43:29;;;;;;;24.23;23.02;;;33.20;41.70;;;;;;4897390;29;20196;-74
2023/07/06 12:45:55;;;;;;;29.98;28.35;;;33.10;41.60;;;;;;4903412;29;20198;-74
2023/07/06 12:48:24;;;;;;;28.42;26.90;;;33.00;42.50;;;;;;4891261;29;20236;-74
2023/07/06 12:50:52;;;;;;;26.83;25.33;;;33.60;41.40;;;;;;4892201;29;20195;-75
2023/07/06 12:53:27;;;;;;;23.65;22.20;;;33.80;41.00;;;;;;4897338;29;20652;-74
2023/07/06 12:56:06;;;;;;;12.65;11.77;;;33.90;41.50;;;;;;4897383;29;20192;-74
2023/07/06 12:58:35;;;;;;;9.13;8.35;;;34.80;40.20;;;;;;4895208;29;20192;-74
2023/07/06 13:01:10;;;;;;;7.80;7.30;;;34.50;39.30;;;;;;4884031;29;20204;-75
2023/07/06 13:03:59;;;;;;;10.63;10.02;;;34.10;41.00;;;;;;4882641;29;20199;-75
2023/07/06 13:06:27;;;;;;;10.57;9.57;;;34.30;40.00;;;;;;4896963;29;20219;-74
2023/07/06 13:08:59;;;;;;;7.93;7.32;;;34.50;39.90;;;;;;4893015;29;20285;-75
2023/07/06 13:11:26;;;;;;;5.00;4.70;;;35.20;38.70;;;;;;4895699;29;20233;-75
2023/07/06 13:13:56;;;;;;;7.85;7.10;;;35.70;39.00;;;;;;4897203;29;20699;-74
2023/07/06 13:16:22;;;;;;;6.07;5.68;;;36.30;37.50;;;;;;4896727;29;20320;-74
2023/07/06 13:18:49;;;;;;;7.72;7.07;;;35.00;38.60;;;;;;4892733;29;20227;-76
2023/07/06 13:21:17;;;;;;;14.25;13.10;;;34.80;38.40;;;;;;4901377;29;20192;-75
2023/07/06 13:23:45;;;;;;;6.82;6.28;;;34.30;39.10;;;;;;4897218;29;20198;-75
2023/07/06 13:26:11;;;;;;;5.03;4.65;;;34.60;38.90;;;;;;4895455;29;20807;-75
2023/07/06 13:28:38;;;;;;;5.85;5.45;;;35.60;38.80;;;;;;4896396;29;20195;-74
2023/07/06 13:31:05;;;;;;;6.55;6.18;;;36.30;37.60;;;;;;4892725;29;20223;-74
2023/07/06 13:33:31;;;;;;;5.75;5.45;;;37.10;37.00;;;;;;4897329;29;20767;-74
2023/07/06 13:35:57;;;;;;;5.75;5.35;;;37.30;36.20;;;;;;4897139;29;20290;-75
2023/07/06 13:38:28;;;;;;;6.82;6.43;;;37.40;35.70;;;;;;4896259;29;20266;-76
2023/07/06 13:40:54;;;;;;;4.40;4.20;;;36.60;36.30;;;;;;4891078;29;20219;-74
2023/07/06 13:43:21;;;;;;;4.85;4.55;;;34.70;37.30;;;;;;4895698;29;20684;-74
2023/07/06 13:45:48;;;;;;;24.90;23.67;;;32.90;40.30;;;;;;4891217;29;20679;-75
2023/07/06 13:48:15;;;;;;;22.55;21.27;;;31.80;41.30;;;;;;4896205;29;20310;-75
2023/07/06 13:50:41;;;;;;;5.93;4.75;;;30.70;43.00;;;;;;4877651;29;20195;-72
2023/07/06 13:53:11;;;;;;;6.95;4.80;;;30.30;44.50;;;;;;4888814;29;20731;-75
2023/07/06 13:55:52;;;;;;;30.65;29.00;;;29.90;44.30;;;;;;4888160;29;20328;-74
2023/07/06 13:58:23;;;;;;;7.25;6.75;;;29.30;45.00;;;;;;4894528;29;20212;-74
2023/07/06 14:00:50;;;;;;;4.22;4.03;;;28.40;46.10;;;;;;4890421;29;20191;-74
2023/07/06 14:03:21;;;;;;;6.05;5.57;;;27.80;46.80;;;;;;4890136;29;20219;-75
2023/07/06 14:05:48;;;;;;;4.55;4.25;;;27.70;48.50;;;;;;4895622;29;20241;-74
2023/07/06 14:08:15;;;;;;;6.13;5.63;;;28.80;47.60;;;;;;4889353;29;20708;-74
2023/07/06 14:10:41;;;;;;;7.55;6.95;;;30.90;45.70;;;;;;4893745;29;20188;-73
2023/07/06 14:13:08;;;;;;;5.75;5.10;;;33.20;41.00;;;;;;4895514;29;20286;-74
2023/07/06 14:15:36;;;;;;;12.38;11.57;;;34.10;40.40;;;;;;4894392;29;20188;-73
2023/07/06 14:18:03;;;;;;;12.55;11.93;;;35.20;38.10;;;;;;4882889;29;20228;-75
2023/07/06 14:20:29;;;;;;;11.50;10.88;;;34.80;37.60;;;;;;4886691;29;20203;-73
2023/07/06 14:22:55;;;;;;;12.50;11.70;;;33.10;39.60;;;;;;4895643;29;20197;-74
2023/07/06 14:25:23;;;;;;;13.57;12.77;;;32.90;40.10;;;;;;4894635;29;20196;-74
2023/07/06 14:27:49;;;;;;;11.77;11.02;;;33.20;40.30;;;;;;4893976;29;20214;-74
2023/07/06 14:30:17;;;;;;;6.95;6.25;;;34.30;38.40;;;;;;4895718;29;20195;-75
2023/07/06 14:32:45;;;;;;;4.88;4.68;;;35.50;37.50;;;;;;4894389;29;20270;-74
2023/07/06 14:35:13;;;;;;;4.95;4.65;;;35.90;36.70;;;;;;4895781;29;20195;-74
2023/07/06 14:37:40;;;;;;;8.02;7.43;;;34.90;37.60;;;;;;4890614;29;20216;-74
2023/07/06 14:40:10;;;;;;;20.38;19.20;;;34.10;38.00;;;;;;4892070;29;20196;-74
2023/07/06 14:42:36;;;;;;;17.02;15.98;;;33.30;39.10;;;;;;4895577;29;20203;-78
2023/07/06 14:45:03;;;;;;;19.02;18.00;;;33.50;38.70;;;;;;4894954;29;20187;-74
2023/07/06 14:47:29;;;;;;;11.82;11.23;;;33.60;39.50;;;;;;4889857;29;20219;-74
2023/07/06 14:49:55;;;;;;;6.20;5.80;;;34.50;38.60;;;;;;4884303;29;20199;-74
2023/07/06 14:52:21;;;;;;;5.65;5.28;;;35.20;37.60;;;;;;4899940;29;20250;-74
2023/07/06 14:54:47;;;;;;;39.10;15.38;;;35.60;37.30;;;;;;4899598;29;20728;-74
2023/07/06 14:57:20;;;;;;;3.83;3.50;;;34.80;36.80;;;;;;5031493;27;2037106;-68
2023/07/06 14:59:46;;;;;;;5.00;4.50;;;34.10;39.70;;;;;;5074171;28;20714;-68
2023/07/06 15:02:12;;;;;;;4.28;3.75;;;34.90;38.50;;;;;;5069576;28;20197;-68
2023/07/06 15:04:39;;;;;;;4.72;4.32;;;35.50;37.90;;;;;;5070023;28;20538;-67
2023/07/06 15:07:05;;;;;;;4.25;4.05;;;35.90;37.90;;;;;;5077744;28;20623;-68
2023/07/06 15:09:32;;;;;;;5.95;5.55;;;35.80;37.00;;;;;;5075370;28;20185;-70
2023/07/06 15:11:58;;;;;;;4.80;4.40;;;36.40;36.80;;;;;;5079182;28;20276;-70
2023/07/06 15:14:23;;;;;;;3.80;3.50;;;36.60;36.30;;;;;;5086381;28;20312;-70
2023/07/06 15:16:49;;;;;;;5.35;4.88;;;37.30;35.40;;;;;;5096930;22;20765;-70
2023/07/06 15:19:15;;;;;;;3.85;3.55;;;37.40;35.80;;;;;;5037826;28;20225;-70
2023/07/06 15:21:42;;;;;;;4.68;4.25;;;37.90;34.90;;;;;;5066613;28;20212;-70
2023/07/06 15:24:08;;;;;;;4.45;4.15;;;37.70;35.60;;;;;;5067411;28;20579;-70
2023/07/06 15:26:33;;;;;;;3.67;3.47;;;37.70;35.20;;;;;;5067110;28;20343;-70
2023/07/06 15:28:59;;;;;;;5.22;4.85;;;37.90;34.80;;;;;;5058614;28;20544;-70
2023/07/06 15:31:25;;;;;;;7.32;4.03;;;37.30;35.10;;;;;;5067199;28;20186;-70
2023/07/06 15:33:53;;;;;;;5.80;5.30;;;36.20;36.10;;;;;;5067162;28;20671;-70
2023/07/06 15:36:20;;;;;;;4.15;3.78;;;35.20;36.80;;;;;;5066968;28;20214;-70
2023/07/06 15:38:45;;;;;;;5.93;4.05;;;35.00;37.60;;;;;;5058801;28;20218;-71
2023/07/06 15:41:11;;;;;;;5.88;5.07;;;35.50;37.20;;;;;;5066941;28;20268;-70
2023/07/06 15:43:37;;;;;;;4.32;4.05;;;35.90;36.40;;;;;;5067016;28;20197;-71
2023/07/06 15:46:04;;;;;;;4.28;3.97;;;35.70;36.40;;;;;;5067088;28;20568;-70
2023/07/06 15:48:30;;;;;;;7.57;7.00;;;35.80;35.40;;;;;;5059057;28;20297;-71
2023/07/06 15:50:57;;;;;;;6.35;5.88;;;35.00;36.10;;;;;;5054828;28;20588;-70